sensor_id;sensor_type;location;lat;lon;timestamp;P1;durP1;ratioP1;P2;durP2;ratioP2
50231;SDS011;36118;56.468;84.952;2023-05-24T00:01:38;4.60;;;2.00;;
50231;SDS011;36118;56.468;84.952;2023-05-24T00:06:43;8.38;;;2.33;;
50231;SDS011;36118;56.468;84.952;2023-05-24T00:11:46;6.22;;;1.98;;
50231;SDS011;36118;56.468;84.952;2023-05-24T00:16:50;6.47;;;2.00;;
50231;SDS011;36118;56.468;84.952;2023-05-24T00:21:53;6.32;;;1.80;;
50231;SDS011;36118;56.468;84.952;2023-05-24T00:26:56;7.65;;;1.80;;
50231;SDS011;36118;56.468;84.952;2023-05-24T00:32:00;6.28;;;1.83;;
50231;SDS011;36118;56.468;84.952;2023-05-24T00:37:04;5.85;;;1.90;;
50231;SDS011;36118;56.468;84.952;2023-05-24T00:42:07;8.57;;;2.05;;
50231;SDS011;36118;56.468;84.952;2023-05-24T00:47:10;5.65;;;1.60;;
50231;SDS011;36118;56.468;84.952;2023-05-24T00:52:13;3.60;;;1.40;;
50231;SDS011;36118;56.468;84.952;2023-05-24T00:57:16;7.75;;;1.45;;
50231;SDS011;36118;56.468;84.952;2023-05-24T01:02:22;7.75;;;1.20;;
50231;SDS011;36118;56.468;84.952;2023-05-24T01:07:29;6.18;;;1.40;;
50231;SDS011;36118;56.468;84.952;2023-05-24T01:12:55;4.90;;;1.70;;
50231;SDS011;36118;56.468;84.952;2023-05-24T01:29:28;3.72;;;1.30;;
50231;SDS011;36118;56.468;84.952;2023-05-24T01:34:32;6.63;;;1.20;;
50231;SDS011;36118;56.468;84.952;2023-05-24T01:39:35;3.03;;;0.98;;
50231;SDS011;36118;56.468;84.952;2023-05-24T01:44:41;3.60;;;0.52;;
50231;SDS011;36118;56.468;84.952;2023-05-24T01:49:58;4.68;;;1.33;;
50231;SDS011;36118;56.468;84.952;2023-05-24T01:55:16;7.03;;;1.03;;
50231;SDS011;36118;56.468;84.952;2023-05-24T02:00:20;2.85;;;0.90;;
50231;SDS011;36118;56.468;84.952;2023-05-24T02:05:24;4.60;;;0.90;;
50231;SDS011;36118;56.468;84.952;2023-05-24T02:10:27;5.72;;;0.75;;
50231;SDS011;36118;56.468;84.952;2023-05-24T02:15:31;5.60;;;0.75;;
50231;SDS011;36118;56.468;84.952;2023-05-24T02:20:34;5.72;;;0.80;;
50231;SDS011;36118;56.468;84.952;2023-05-24T02:25:40;4.20;;;0.88;;
50231;SDS011;36118;56.468;84.952;2023-05-24T02:30:44;3.25;;;0.75;;
50231;SDS011;36118;56.468;84.952;2023-05-24T02:35:47;4.47;;;1.00;;
50231;SDS011;36118;56.468;84.952;2023-05-24T02:40:50;4.22;;;0.82;;
50231;SDS011;36118;56.468;84.952;2023-05-24T02:45:53;6.57;;;0.82;;
50231;SDS011;36118;56.468;84.952;2023-05-24T02:50:57;4.63;;;0.80;;
50231;SDS011;36118;56.468;84.952;2023-05-24T02:55:59;2.17;;;0.50;;
50231;SDS011;36118;56.468;84.952;2023-05-24T03:06:09;6.50;;;0.80;;
50231;SDS011;36118;56.468;84.952;2023-05-24T03:11:12;4.00;;;0.90;;
50231;SDS011;36118;56.468;84.952;2023-05-24T03:16:15;5.63;;;1.10;;
50231;SDS011;36118;56.468;84.952;2023-05-24T03:21:20;1.02;;;0.30;;
50231;SDS011;36118;56.468;84.952;2023-05-24T03:26:24;2.22;;;0.75;;
50231;SDS011;36118;56.468;84.952;2023-05-24T03:31:28;2.58;;;0.52;;
50231;SDS011;36118;56.468;84.952;2023-05-24T03:36:32;3.53;;;0.80;;
50231;SDS011;36118;56.468;84.952;2023-05-24T03:41:35;1.75;;;0.40;;
50231;SDS011;36118;56.468;84.952;2023-05-24T03:46:38;3.92;;;0.70;;
50231;SDS011;36118;56.468;84.952;2023-05-24T03:51:41;6.60;;;0.80;;
50231;SDS011;36118;56.468;84.952;2023-05-24T03:56:44;5.80;;;0.98;;
50231;SDS011;36118;56.468;84.952;2023-05-24T04:01:48;5.20;;;0.90;;
50231;SDS011;36118;56.468;84.952;2023-05-24T04:06:51;6.57;;;0.90;;
50231;SDS011;36118;56.468;84.952;2023-05-24T04:11:55;1.83;;;0.70;;
50231;SDS011;36118;56.468;84.952;2023-05-24T04:16:58;4.45;;;0.50;;
50231;SDS011;36118;56.468;84.952;2023-05-24T04:22:01;2.92;;;0.82;;
50231;SDS011;36118;56.468;84.952;2023-05-24T04:27:04;2.20;;;0.40;;
50231;SDS011;36118;56.468;84.952;2023-05-24T04:32:08;4.32;;;1.02;;
50231;SDS011;36118;56.468;84.952;2023-05-24T04:37:13;2.25;;;0.82;;
50231;SDS011;36118;56.468;84.952;2023-05-24T04:42:20;4.47;;;0.60;;
50231;SDS011;36118;56.468;84.952;2023-05-24T04:47:23;4.57;;;1.02;;
50231;SDS011;36118;56.468;84.952;2023-05-24T04:52:26;2.45;;;0.50;;
50231;SDS011;36118;56.468;84.952;2023-05-24T04:57:29;4.13;;;0.75;;
50231;SDS011;36118;56.468;84.952;2023-05-24T05:02:33;5.00;;;0.85;;
50231;SDS011;36118;56.468;84.952;2023-05-24T05:07:36;1.77;;;0.50;;
50231;SDS011;36118;56.468;84.952;2023-05-24T05:12:39;2.30;;;0.63;;
50231;SDS011;36118;56.468;84.952;2023-05-24T05:17:42;2.78;;;0.60;;
50231;SDS011;36118;56.468;84.952;2023-05-24T05:22:46;4.95;;;0.70;;
50231;SDS011;36118;56.468;84.952;2023-05-24T05:27:49;1.67;;;0.55;;
50231;SDS011;36118;56.468;84.952;2023-05-24T05:32:52;4.55;;;0.80;;
50231;SDS011;36118;56.468;84.952;2023-05-24T05:37:56;3.33;;;0.70;;
50231;SDS011;36118;56.468;84.952;2023-05-24T05:42:59;5.93;;;1.13;;
50231;SDS011;36118;56.468;84.952;2023-05-24T05:48:02;5.70;;;1.00;;
50231;SDS011;36118;56.468;84.952;2023-05-24T05:53:05;7.47;;;0.90;;
50231;SDS011;36118;56.468;84.952;2023-05-24T05:58:09;4.68;;;0.77;;
50231;SDS011;36118;56.468;84.952;2023-05-24T06:03:13;4.05;;;1.20;;
50231;SDS011;36118;56.468;84.952;2023-05-24T06:08:16;2.58;;;0.60;;
50231;SDS011;36118;56.468;84.952;2023-05-24T06:13:20;3.42;;;0.93;;
50231;SDS011;36118;56.468;84.952;2023-05-24T06:18:23;4.28;;;0.82;;
50231;SDS011;36118;56.468;84.952;2023-05-24T06:23:28;9.33;;;1.00;;
50231;SDS011;36118;56.468;84.952;2023-05-24T06:28:31;1.05;;;0.40;;
50231;SDS011;36118;56.468;84.952;2023-05-24T06:33:34;4.05;;;0.70;;
50231;SDS011;36118;56.468;84.952;2023-05-24T06:38:39;2.15;;;0.70;;
50231;SDS011;36118;56.468;84.952;2023-05-24T06:43:42;3.95;;;0.82;;
50231;SDS011;36118;56.468;84.952;2023-05-24T06:48:45;5.60;;;0.90;;
50231;SDS011;36118;56.468;84.952;2023-05-24T06:53:49;1.98;;;0.50;;
50231;SDS011;36118;56.468;84.952;2023-05-24T06:58:52;6.10;;;0.75;;
50231;SDS011;36118;56.468;84.952;2023-05-24T07:03:55;2.00;;;0.60;;
50231;SDS011;36118;56.468;84.952;2023-05-24T07:08:58;5.05;;;0.63;;
50231;SDS011;36118;56.468;84.952;2023-05-24T07:14:03;3.33;;;0.70;;
50231;SDS011;36118;56.468;84.952;2023-05-24T07:19:06;2.80;;;0.70;;
50231;SDS011;36118;56.468;84.952;2023-05-24T07:24:09;2.95;;;0.90;;
50231;SDS011;36118;56.468;84.952;2023-05-24T07:29:26;2.85;;;0.50;;
50231;SDS011;36118;56.468;84.952;2023-05-24T07:34:29;2.58;;;0.73;;
50231;SDS011;36118;56.468;84.952;2023-05-24T07:39:32;5.18;;;0.63;;
50231;SDS011;36118;56.468;84.952;2023-05-24T07:44:35;4.47;;;0.70;;
50231;SDS011;36118;56.468;84.952;2023-05-24T07:49:38;4.03;;;0.50;;
50231;SDS011;36118;56.468;84.952;2023-05-24T07:54:41;3.63;;;0.80;;
50231;SDS011;36118;56.468;84.952;2023-05-24T07:59:44;1.58;;;0.50;;
50231;SDS011;36118;56.468;84.952;2023-05-24T08:04:47;6.05;;;1.23;;
50231;SDS011;36118;56.468;84.952;2023-05-24T08:09:50;2.35;;;0.50;;
50231;SDS011;36118;56.468;84.952;2023-05-24T08:14:54;6.80;;;0.70;;
50231;SDS011;36118;56.468;84.952;2023-05-24T08:19:57;3.45;;;0.70;;
50231;SDS011;36118;56.468;84.952;2023-05-24T08:25:00;6.20;;;0.70;;
50231;SDS011;36118;56.468;84.952;2023-05-24T08:30:05;3.08;;;0.70;;
50231;SDS011;36118;56.468;84.952;2023-05-24T08:35:09;3.13;;;0.83;;
50231;SDS011;36118;56.468;84.952;2023-05-24T08:40:22;3.03;;;0.82;;
50231;SDS011;36118;56.468;84.952;2023-05-24T08:45:28;3.28;;;0.60;;
50231;SDS011;36118;56.468;84.952;2023-05-24T08:50:33;3.17;;;0.70;;
50231;SDS011;36118;56.468;84.952;2023-05-24T08:55:37;5.22;;;0.73;;
50231;SDS011;36118;56.468;84.952;2023-05-24T09:00:41;6.20;;;1.45;;
50231;SDS011;36118;56.468;84.952;2023-05-24T09:05:44;3.25;;;0.60;;
50231;SDS011;36118;56.468;84.952;2023-05-24T09:10:48;3.28;;;0.82;;
50231;SDS011;36118;56.468;84.952;2023-05-24T09:15:58;5.80;;;0.75;;
50231;SDS011;36118;56.468;84.952;2023-05-24T09:21:01;2.57;;;0.60;;
50231;SDS011;36118;56.468;84.952;2023-05-24T09:26:07;3.08;;;0.57;;
50231;SDS011;36118;56.468;84.952;2023-05-24T09:31:11;5.10;;;1.00;;
50231;SDS011;36118;56.468;84.952;2023-05-24T09:36:15;5.05;;;0.70;;
50231;SDS011;36118;56.468;84.952;2023-05-24T09:41:19;5.20;;;0.98;;
50231;SDS011;36118;56.468;84.952;2023-05-24T09:46:22;6.13;;;0.90;;
50231;SDS011;36118;56.468;84.952;2023-05-24T09:51:25;6.72;;;0.77;;
50231;SDS011;36118;56.468;84.952;2023-05-24T09:56:29;4.40;;;0.70;;
50231;SDS011;36118;56.468;84.952;2023-05-24T10:01:32;2.47;;;0.50;;
50231;SDS011;36118;56.468;84.952;2023-05-24T10:06:37;4.10;;;0.75;;
50231;SDS011;36118;56.468;84.952;2023-05-24T10:11:41;5.35;;;0.95;;
50231;SDS011;36118;56.468;84.952;2023-05-24T10:16:46;6.83;;;0.83;;
50231;SDS011;36118;56.468;84.952;2023-05-24T10:21:49;3.58;;;1.20;;
50231;SDS011;36118;56.468;84.952;2023-05-24T10:31:58;6.03;;;1.02;;
50231;SDS011;36118;56.468;84.952;2023-05-24T10:37:01;2.35;;;0.52;;
50231;SDS011;36118;56.468;84.952;2023-05-24T10:42:05;2.67;;;0.50;;
50231;SDS011;36118;56.468;84.952;2023-05-24T10:47:11;4.30;;;1.38;;
50231;SDS011;36118;56.468;84.952;2023-05-24T10:52:15;1.53;;;0.43;;
50231;SDS011;36118;56.468;84.952;2023-05-24T10:57:21;4.00;;;0.70;;
50231;SDS011;36118;56.468;84.952;2023-05-24T11:02:26;6.60;;;0.90;;
50231;SDS011;36118;56.468;84.952;2023-05-24T11:07:29;7.38;;;0.70;;
50231;SDS011;36118;56.468;84.952;2023-05-24T11:12:34;5.55;;;1.05;;
50231;SDS011;36118;56.468;84.952;2023-05-24T11:23:11;1.80;;;0.60;;
50231;SDS011;36118;56.468;84.952;2023-05-24T11:28:16;5.72;;;0.93;;
50231;SDS011;36118;56.468;84.952;2023-05-24T11:33:21;2.35;;;0.70;;
50231;SDS011;36118;56.468;84.952;2023-05-24T11:38:25;5.20;;;1.10;;
50231;SDS011;36118;56.468;84.952;2023-05-24T11:43:29;1.73;;;0.70;;
50231;SDS011;36118;56.468;84.952;2023-05-24T11:48:32;3.83;;;0.88;;
50231;SDS011;36118;56.468;84.952;2023-05-24T11:53:36;4.30;;;0.82;;
50231;SDS011;36118;56.468;84.952;2023-05-24T11:58:43;2.90;;;1.20;;
50231;SDS011;36118;56.468;84.952;2023-05-24T12:03:51;4.43;;;0.85;;
50231;SDS011;36118;56.468;84.952;2023-05-24T12:08:56;4.20;;;0.98;;
50231;SDS011;36118;56.468;84.952;2023-05-24T12:13:59;6.90;;;1.40;;
50231;SDS011;36118;56.468;84.952;2023-05-24T12:19:02;3.08;;;0.60;;
50231;SDS011;36118;56.468;84.952;2023-05-24T12:24:15;4.60;;;0.77;;
50231;SDS011;36118;56.468;84.952;2023-05-24T12:29:19;3.17;;;0.60;;
50231;SDS011;36118;56.468;84.952;2023-05-24T12:34:22;3.03;;;0.70;;
50231;SDS011;36118;56.468;84.952;2023-05-24T12:39:27;4.75;;;0.98;;
50231;SDS011;36118;56.468;84.952;2023-05-24T12:44:37;5.35;;;0.68;;
50231;SDS011;36118;56.468;84.952;2023-05-24T12:49:40;4.70;;;0.80;;
50231;SDS011;36118;56.468;84.952;2023-05-24T12:54:44;5.18;;;1.13;;
50231;SDS011;36118;56.468;84.952;2023-05-24T12:59:48;8.00;;;1.48;;
50231;SDS011;36118;56.468;84.952;2023-05-24T13:04:51;7.22;;;1.90;;
50231;SDS011;36118;56.468;84.952;2023-05-24T13:09:54;5.40;;;1.33;;
50231;SDS011;36118;56.468;84.952;2023-05-24T13:14:58;5.70;;;1.10;;
50231;SDS011;36118;56.468;84.952;2023-05-24T13:20:02;8.68;;;1.70;;
50231;SDS011;36118;56.468;84.952;2023-05-24T13:25:09;7.35;;;1.60;;
50231;SDS011;36118;56.468;84.952;2023-05-24T13:30:12;6.82;;;1.50;;
50231;SDS011;36118;56.468;84.952;2023-05-24T13:35:15;6.63;;;1.15;;
50231;SDS011;36118;56.468;84.952;2023-05-24T13:40:19;3.90;;;1.08;;
50231;SDS011;36118;56.468;84.952;2023-05-24T13:45:22;2.92;;;1.20;;
50231;SDS011;36118;56.468;84.952;2023-05-24T13:50:26;7.35;;;2.40;;
50231;SDS011;36118;56.468;84.952;2023-05-24T13:55:29;6.15;;;1.90;;
50231;SDS011;36118;56.468;84.952;2023-05-24T14:00:33;5.27;;;1.50;;
50231;SDS011;36118;56.468;84.952;2023-05-24T14:05:37;6.25;;;1.65;;
50231;SDS011;36118;56.468;84.952;2023-05-24T14:10:41;6.90;;;2.08;;
50231;SDS011;36118;56.468;84.952;2023-05-24T14:15:45;6.93;;;1.92;;
50231;SDS011;36118;56.468;84.952;2023-05-24T14:20:48;4.78;;;2.30;;
50231;SDS011;36118;56.468;84.952;2023-05-24T14:25:51;8.63;;;2.63;;
50231;SDS011;36118;56.468;84.952;2023-05-24T14:30:54;5.53;;;2.78;;
50231;SDS011;36118;56.468;84.952;2023-05-24T14:35:57;5.82;;;2.47;;
50231;SDS011;36118;56.468;84.952;2023-05-24T14:41:04;7.20;;;2.42;;
50231;SDS011;36118;56.468;84.952;2023-05-24T14:46:10;5.80;;;3.20;;
50231;SDS011;36118;56.468;84.952;2023-05-24T14:51:13;8.90;;;4.38;;
50231;SDS011;36118;56.468;84.952;2023-05-24T14:56:16;8.52;;;3.58;;
50231;SDS011;36118;56.468;84.952;2023-05-24T15:01:19;7.20;;;3.92;;
50231;SDS011;36118;56.468;84.952;2023-05-24T15:06:23;7.95;;;3.50;;
50231;SDS011;36118;56.468;84.952;2023-05-24T15:11:26;9.10;;;4.03;;
50231;SDS011;36118;56.468;84.952;2023-05-24T15:16:29;7.88;;;3.28;;
50231;SDS011;36118;56.468;84.952;2023-05-24T15:21:32;8.45;;;3.33;;
50231;SDS011;36118;56.468;84.952;2023-05-24T15:26:35;9.70;;;4.65;;
50231;SDS011;36118;56.468;84.952;2023-05-24T15:31:38;13.63;;;5.82;;
50231;SDS011;36118;56.468;84.952;2023-05-24T15:36:43;21.95;;;10.68;;
50231;SDS011;36118;56.468;84.952;2023-05-24T15:41:47;13.77;;;7.07;;
50231;SDS011;36118;56.468;84.952;2023-05-24T15:46:50;15.38;;;6.20;;
50231;SDS011;36118;56.468;84.952;2023-05-24T15:51:54;15.40;;;6.68;;
50231;SDS011;36118;56.468;84.952;2023-05-24T15:57:05;18.45;;;8.18;;
50231;SDS011;36118;56.468;84.952;2023-05-24T16:02:09;21.58;;;6.68;;
50231;SDS011;36118;56.468;84.952;2023-05-24T16:07:12;16.98;;;7.15;;
50231;SDS011;36118;56.468;84.952;2023-05-24T16:12:16;15.95;;;7.63;;
50231;SDS011;36118;56.468;84.952;2023-05-24T16:17:19;14.85;;;6.53;;
50231;SDS011;36118;56.468;84.952;2023-05-24T16:22:22;9.55;;;4.68;;
50231;SDS011;36118;56.468;84.952;2023-05-24T16:27:25;11.80;;;3.92;;
50231;SDS011;36118;56.468;84.952;2023-05-24T16:32:28;9.40;;;4.07;;
50231;SDS011;36118;56.468;84.952;2023-05-24T16:37:32;14.00;;;5.15;;
50231;SDS011;36118;56.468;84.952;2023-05-24T16:42:35;11.88;;;4.82;;
50231;SDS011;36118;56.468;84.952;2023-05-24T16:47:38;10.52;;;5.22;;
50231;SDS011;36118;56.468;84.952;2023-05-24T16:52:42;14.73;;;5.60;;
50231;SDS011;36118;56.468;84.952;2023-05-24T16:57:46;16.38;;;5.68;;
50231;SDS011;36118;56.468;84.952;2023-05-24T17:02:49;14.27;;;6.13;;
50231;SDS011;36118;56.468;84.952;2023-05-24T17:07:53;13.80;;;5.97;;
50231;SDS011;36118;56.468;84.952;2023-05-24T17:12:56;14.15;;;6.30;;
50231;SDS011;36118;56.468;84.952;2023-05-24T17:17:59;18.50;;;6.60;;
50231;SDS011;36118;56.468;84.952;2023-05-24T17:23:02;13.52;;;5.55;;
50231;SDS011;36118;56.468;84.952;2023-05-24T17:28:05;15.07;;;4.93;;
50231;SDS011;36118;56.468;84.952;2023-05-24T17:33:08;8.93;;;4.25;;
50231;SDS011;36118;56.468;84.952;2023-05-24T17:38:11;11.18;;;4.32;;
50231;SDS011;36118;56.468;84.952;2023-05-24T17:43:14;10.65;;;4.30;;
50231;SDS011;36118;56.468;84.952;2023-05-24T17:48:17;12.43;;;4.75;;
50231;SDS011;36118;56.468;84.952;2023-05-24T17:53:20;12.88;;;4.10;;
50231;SDS011;36118;56.468;84.952;2023-05-24T17:58:33;10.82;;;3.40;;
50231;SDS011;36118;56.468;84.952;2023-05-24T18:03:39;9.50;;;3.58;;
50231;SDS011;36118;56.468;84.952;2023-05-24T18:08:42;7.45;;;3.63;;
50231;SDS011;36118;56.468;84.952;2023-05-24T18:13:45;8.07;;;3.40;;
50231;SDS011;36118;56.468;84.952;2023-05-24T18:18:48;12.02;;;5.88;;
50231;SDS011;36118;56.468;84.952;2023-05-24T18:23:51;12.27;;;6.90;;
50231;SDS011;36118;56.468;84.952;2023-05-24T18:28:55;9.57;;;3.60;;
50231;SDS011;36118;56.468;84.952;2023-05-24T18:33:58;9.32;;;3.42;;
50231;SDS011;36118;56.468;84.952;2023-05-24T18:39:03;8.45;;;2.88;;
50231;SDS011;36118;56.468;84.952;2023-05-24T18:44:08;7.57;;;3.28;;
50231;SDS011;36118;56.468;84.952;2023-05-24T18:49:11;6.78;;;3.38;;
50231;SDS011;36118;56.468;84.952;2023-05-24T18:54:16;7.22;;;2.63;;
50231;SDS011;36118;56.468;84.952;2023-05-24T18:59:20;6.13;;;2.70;;
50231;SDS011;36118;56.468;84.952;2023-05-24T19:04:25;5.13;;;2.30;;
50231;SDS011;36118;56.468;84.952;2023-05-24T19:09:29;7.07;;;2.70;;
50231;SDS011;36118;56.468;84.952;2023-05-24T19:14:32;6.28;;;3.00;;
50231;SDS011;36118;56.468;84.952;2023-05-24T19:19:35;5.47;;;2.90;;
50231;SDS011;36118;56.468;84.952;2023-05-24T19:24:38;6.07;;;2.90;;
50231;SDS011;36118;56.468;84.952;2023-05-24T19:29:41;6.80;;;3.13;;
50231;SDS011;36118;56.468;84.952;2023-05-24T19:34:44;11.00;;;3.45;;
50231;SDS011;36118;56.468;84.952;2023-05-24T19:39:47;8.65;;;3.15;;
50231;SDS011;36118;56.468;84.952;2023-05-24T19:44:50;11.38;;;3.25;;
50231;SDS011;36118;56.468;84.952;2023-05-24T19:49:53;9.48;;;3.58;;
50231;SDS011;36118;56.468;84.952;2023-05-24T19:54:56;5.40;;;2.53;;
50231;SDS011;36118;56.468;84.952;2023-05-24T19:59:59;5.43;;;3.00;;
50231;SDS011;36118;56.468;84.952;2023-05-24T20:05:12;8.98;;;3.00;;
50231;SDS011;36118;56.468;84.952;2023-05-24T20:10:15;12.75;;;3.72;;
50231;SDS011;36118;56.468;84.952;2023-05-24T20:15:18;10.20;;;3.50;;
50231;SDS011;36118;56.468;84.952;2023-05-24T20:20:21;8.60;;;3.30;;
50231;SDS011;36118;56.468;84.952;2023-05-24T20:25:25;7.72;;;3.30;;
50231;SDS011;36118;56.468;84.952;2023-05-24T20:30:28;10.10;;;3.85;;
50231;SDS011;36118;56.468;84.952;2023-05-24T20:35:31;11.85;;;4.10;;
50231;SDS011;36118;56.468;84.952;2023-05-24T20:40:34;5.47;;;2.00;;
50231;SDS011;36118;56.468;84.952;2023-05-24T20:45:37;4.28;;;1.48;;
50231;SDS011;36118;56.468;84.952;2023-05-24T20:50:40;3.85;;;1.17;;
50231;SDS011;36118;56.468;84.952;2023-05-24T20:55:43;3.42;;;1.10;;
50231;SDS011;36118;56.468;84.952;2023-05-24T21:00:46;2.75;;;1.00;;
50231;SDS011;36118;56.468;84.952;2023-05-24T21:05:50;3.47;;;0.73;;
50231;SDS011;36118;56.468;84.952;2023-05-24T21:10:52;3.35;;;1.02;;
50231;SDS011;36118;56.468;84.952;2023-05-24T21:15:57;3.83;;;0.73;;
50231;SDS011;36118;56.468;84.952;2023-05-24T21:21:04;3.78;;;0.80;;
50231;SDS011;36118;56.468;84.952;2023-05-24T21:26:07;7.78;;;1.00;;
50231;SDS011;36118;56.468;84.952;2023-05-24T21:31:10;3.65;;;0.80;;
50231;SDS011;36118;56.468;84.952;2023-05-24T21:36:14;2.45;;;0.80;;
50231;SDS011;36118;56.468;84.952;2023-05-24T21:41:17;4.07;;;1.17;;
50231;SDS011;36118;56.468;84.952;2023-05-24T21:46:20;4.75;;;1.35;;
50231;SDS011;36118;56.468;84.952;2023-05-24T21:51:22;4.22;;;1.08;;
50231;SDS011;36118;56.468;84.952;2023-05-24T21:56:25;8.52;;;0.95;;
50231;SDS011;36118;56.468;84.952;2023-05-24T22:01:28;2.05;;;0.70;;
50231;SDS011;36118;56.468;84.952;2023-05-24T22:06:32;9.23;;;1.80;;
50231;SDS011;36118;56.468;84.952;2023-05-24T22:11:34;3.75;;;1.00;;
50231;SDS011;36118;56.468;84.952;2023-05-24T22:16:38;10.52;;;2.15;;
50231;SDS011;36118;56.468;84.952;2023-05-24T22:21:42;9.60;;;1.43;;
50231;SDS011;36118;56.468;84.952;2023-05-24T22:26:47;10.53;;;2.27;;
50231;SDS011;36118;56.468;84.952;2023-05-24T22:31:51;10.40;;;2.55;;
50231;SDS011;36118;56.468;84.952;2023-05-24T22:36:54;10.88;;;2.42;;
50231;SDS011;36118;56.468;84.952;2023-05-24T22:41:58;10.07;;;3.40;;
50231;SDS011;36118;56.468;84.952;2023-05-24T22:47:01;10.20;;;4.10;;
50231;SDS011;36118;56.468;84.952;2023-05-24T22:52:04;24.80;;;5.70;;
50231;SDS011;36118;56.468;84.952;2023-05-24T22:57:08;15.13;;;5.07;;
50231;SDS011;36118;56.468;84.952;2023-05-24T23:02:11;17.88;;;4.78;;
50231;SDS011;36118;56.468;84.952;2023-05-24T23:07:14;18.88;;;6.85;;
50231;SDS011;36118;56.468;84.952;2023-05-24T23:12:17;25.52;;;8.07;;
50231;SDS011;36118;56.468;84.952;2023-05-24T23:17:22;33.40;;;9.82;;
50231;SDS011;36118;56.468;84.952;2023-05-24T23:22:25;40.20;;;11.90;;
50231;SDS011;36118;56.468;84.952;2023-05-24T23:27:28;45.45;;;13.23;;
50231;SDS011;36118;56.468;84.952;2023-05-24T23:32:31;34.13;;;12.00;;
50231;SDS011;36118;56.468;84.952;2023-05-24T23:37:34;45.30;;;12.57;;
50231;SDS011;36118;56.468;84.952;2023-05-24T23:42:37;46.25;;;14.23;;
50231;SDS011;36118;56.468;84.952;2023-05-24T23:47:40;35.30;;;12.95;;
50231;SDS011;36118;56.468;84.952;2023-05-24T23:52:44;43.60;;;13.73;;
50231;SDS011;36118;56.468;84.952;2023-05-24T23:57:47;48.85;;;13.68;;
